createdAt,value
2019-03-22T00:01:24.722Z,9.90
2019-03-22T00:03:55.911Z,9.90
2019-03-22T00:06:26.979Z,9.90
2019-03-22T00:08:58.277Z,9.90
2019-03-22T00:11:29.309Z,9.90
2019-03-22T00:14:00.432Z,9.90
2019-03-22T00:16:32.911Z,9.90
2019-03-22T00:19:05.235Z,9.90
2019-03-22T00:21:37.431Z,10.00
2019-03-22T00:24:08.427Z,10.80
2019-03-22T00:26:39.756Z,9.90
2019-03-22T00:29:10.797Z,10.00
2019-03-22T00:31:45.098Z,10.00
2019-03-22T00:34:16.020Z,9.90
2019-03-22T00:36:47.267Z,10.00
2019-03-22T00:39:19.944Z,10.00
2019-03-22T00:41:51.019Z,10.00
2019-03-22T00:44:22.394Z,10.00
2019-03-22T00:46:53.621Z,10.00
2019-03-22T00:49:24.621Z,10.10
2019-03-22T00:51:55.755Z,10.10
2019-03-22T00:54:34.257Z,10.10
2019-03-22T00:57:05.437Z,10.10
2019-03-22T00:59:36.496Z,10.10
2019-03-22T01:02:08.529Z,10.00
2019-03-22T01:04:39.705Z,10.00
2019-03-22T01:07:10.747Z,10.00
2019-03-22T01:09:41.787Z,10.00
2019-03-22T01:12:13.173Z,9.90
2019-03-22T01:14:44.397Z,9.90
2019-03-22T01:17:15.638Z,10.00
2019-03-22T01:19:46.781Z,9.90
2019-03-22T01:22:17.910Z,9.90
2019-03-22T01:24:48.967Z,9.80
2019-03-22T01:27:20.201Z,9.80
2019-03-22T01:29:51.340Z,9.80
2019-03-22T01:32:22.808Z,9.70
2019-03-22T01:34:54.046Z,9.70
2019-03-22T01:37:26.578Z,9.70
2019-03-22T01:39:57.658Z,9.70
2019-03-22T01:42:28.654Z,9.70
2019-03-22T01:45:02.920Z,9.80
2019-03-22T01:47:36.005Z,9.80
2019-03-22T01:50:16.404Z,9.80
2019-03-22T01:52:54.570Z,9.80
2019-03-22T01:55:25.724Z,9.80
2019-03-22T01:57:56.971Z,9.80
2019-03-22T02:00:27.954Z,9.70
2019-03-22T02:02:59.657Z,9.80
2019-03-22T02:05:32.452Z,9.80
2019-03-22T02:08:03.593Z,9.80
2019-03-22T02:10:41.083Z,9.70
2019-03-22T02:13:24.614Z,9.70
2019-03-22T02:15:58.217Z,9.80
2019-03-22T02:18:41.377Z,9.70
2019-03-22T02:21:14.116Z,9.70
2019-03-22T02:23:45.257Z,9.80
2019-03-22T02:26:16.984Z,9.80
2019-03-22T02:28:48.043Z,9.80
2019-03-22T02:31:19.108Z,9.80
2019-03-22T02:33:50.258Z,9.80
2019-03-22T02:36:21.404Z,9.80
2019-03-22T02:38:54.578Z,9.80
2019-03-22T02:41:25.939Z,9.80
2019-03-22T02:43:57.491Z,9.80
2019-03-22T02:46:28.735Z,9.80
2019-03-22T02:48:59.765Z,9.80
2019-03-22T02:51:34.295Z,9.80
2019-03-22T02:54:08.819Z,9.90
2019-03-22T02:56:42.614Z,9.80
2019-03-22T02:59:13.674Z,9.80
2019-03-22T03:01:44.728Z,9.90
2019-03-22T03:04:15.905Z,9.90
2019-03-22T03:06:47.052Z,9.80
2019-03-22T03:09:18.332Z,9.90
2019-03-22T03:11:49.593Z,9.80
2019-03-22T03:14:23.599Z,9.80
2019-03-22T03:16:54.610Z,9.80
2019-03-22T03:19:27.064Z,9.80
2019-03-22T03:21:58.185Z,9.80
2019-03-22T03:24:34.017Z,9.80
2019-03-22T03:27:05.558Z,9.80
2019-03-22T03:29:36.582Z,9.80
2019-03-22T03:32:07.811Z,9.80
2019-03-22T03:34:38.947Z,9.80
2019-03-22T03:37:10.052Z,9.70
2019-03-22T03:39:41.126Z,9.60
2019-03-22T03:42:12.435Z,9.60
2019-03-22T03:44:43.878Z,9.50
2019-03-22T03:47:15.327Z,9.50
2019-03-22T03:49:46.403Z,9.40
2019-03-22T03:52:17.610Z,9.40
2019-03-22T03:54:48.608Z,9.40
2019-03-22T03:57:19.706Z,9.40
2019-03-22T03:59:50.855Z,9.40
2019-03-22T04:02:22.187Z,9.40
2019-03-22T04:04:53.202Z,9.40
2019-03-22T04:07:24.150Z,9.40
2019-03-22T04:09:55.207Z,9.40
2019-03-22T04:12:26.347Z,9.40
2019-03-22T04:14:57.589Z,9.40
2019-03-22T04:17:29.226Z,9.40
2019-03-22T04:20:00.491Z,9.40
2019-03-22T04:22:31.622Z,9.40
2019-03-22T04:25:04.518Z,9.40
2019-03-22T04:27:35.986Z,9.40
2019-03-22T04:30:12.387Z,9.40
2019-03-22T04:32:44.970Z,9.40
2019-03-22T04:35:16.157Z,9.30
2019-03-22T04:37:47.347Z,9.30
2019-03-22T04:40:26.120Z,9.30
2019-03-22T04:42:57.571Z,9.20
2019-03-22T04:45:31.239Z,9.20
2019-03-22T04:48:14.461Z,9.10
2019-03-22T04:50:47.125Z,9.10
2019-03-22T04:53:22.134Z,9.10
2019-03-22T04:55:58.239Z,9.00
2019-03-22T04:58:31.845Z,9.00
2019-03-22T05:01:03.800Z,9.00
2019-03-22T05:03:36.626Z,9.00
2019-03-22T05:06:10.019Z,9.00
2019-03-22T05:08:42.320Z,9.00
2019-03-22T05:11:15.009Z,9.00
2019-03-22T05:13:52.760Z,9.00
2019-03-22T05:16:24.996Z,9.00
2019-03-22T05:18:56.815Z,9.00
2019-03-22T05:21:30.140Z,9.00
2019-03-22T05:24:04.615Z,9.00
2019-03-22T05:26:38.515Z,9.00
2019-03-22T05:29:11.780Z,9.00
2019-03-22T05:32:05.795Z,9.00
2019-03-22T05:34:38.274Z,9.10
2019-03-22T05:37:09.473Z,9.10
2019-03-22T05:39:40.737Z,9.10
2019-03-22T05:42:12.079Z,9.10
2019-03-22T05:44:43.238Z,9.10
2019-03-22T05:47:14.699Z,9.10
2019-03-22T05:49:45.652Z,9.20
2019-03-22T05:52:16.680Z,9.20
2019-03-22T05:54:47.834Z,9.20
2019-03-22T05:57:18.926Z,9.30
2019-03-22T05:59:50.009Z,9.40
2019-03-22T06:02:21.420Z,9.30
2019-03-22T06:04:52.718Z,9.40
2019-03-22T06:07:26.846Z,9.40
2019-03-22T06:10:00.289Z,9.40
2019-03-22T06:12:31.887Z,9.40
2019-03-22T06:15:03.116Z,9.40
2019-03-22T06:17:34.079Z,9.40
2019-03-22T06:20:05.692Z,9.40
2019-03-22T06:22:37.055Z,9.40
2019-03-22T06:25:08.522Z,9.50
2019-03-22T06:27:39.767Z,9.50
2019-03-22T06:30:11.398Z,9.50
2019-03-22T06:32:42.863Z,9.60
2019-03-22T06:35:16.525Z,9.60
2019-03-22T06:37:47.677Z,9.60
2019-03-22T06:40:19.256Z,9.70
2019-03-22T06:42:50.727Z,9.70
2019-03-22T06:45:22.011Z,9.80
2019-03-22T06:47:53.282Z,9.90
2019-03-22T06:50:24.580Z,9.90
2019-03-22T06:52:56.046Z,9.90
2019-03-22T06:55:27.344Z,9.90
2019-03-22T06:57:58.735Z,10.00
2019-03-22T07:00:29.831Z,10.00
2019-03-22T07:03:01.095Z,9.90
2019-03-22T07:05:32.449Z,10.00
2019-03-22T07:08:03.755Z,10.00
2019-03-22T07:10:34.868Z,9.90
2019-03-22T07:13:06.239Z,9.90
2019-03-22T07:15:37.755Z,9.90
2019-03-22T07:18:09.098Z,9.60
2019-03-22T07:20:40.523Z,9.90
2019-03-22T07:23:11.975Z,9.90
2019-03-22T07:25:43.351Z,9.90
2019-03-22T07:28:14.612Z,9.90
2019-03-22T07:30:46.862Z,9.90
2019-03-22T07:33:18.873Z,9.90
2019-03-22T07:35:50.122Z,10.10
2019-03-22T07:38:22.916Z,10.10
2019-03-22T07:40:54.073Z,10.30
2019-03-22T07:43:25.070Z,10.70
2019-03-22T07:45:57.270Z,11.00
2019-03-22T07:48:29.232Z,11.20
2019-03-22T07:51:00.468Z,11.30
2019-03-22T07:53:31.724Z,11.20
2019-03-22T07:56:02.991Z,11.20
2019-03-22T07:58:34.143Z,11.40
2019-03-22T08:01:05.457Z,11.50
2019-03-22T08:03:36.666Z,11.30
2019-03-22T08:06:07.916Z,11.30
2019-03-22T08:08:39.135Z,11.20
2019-03-22T08:11:10.252Z,11.10
2019-03-22T08:13:41.670Z,11.20
2019-03-22T08:16:13.029Z,11.40
2019-03-22T08:18:44.110Z,11.60
2019-03-22T08:21:15.417Z,12.00
2019-03-22T08:23:46.691Z,12.10
2019-03-22T08:26:17.949Z,12.00
2019-03-22T08:28:49.177Z,12.20
2019-03-22T08:31:20.338Z,12.20
2019-03-22T08:33:51.740Z,12.40
2019-03-22T08:36:23.049Z,12.40
2019-03-22T08:38:54.312Z,12.50
2019-03-22T08:41:25.512Z,12.50
2019-03-22T08:43:56.721Z,12.80
2019-03-22T08:46:27.980Z,12.90
2019-03-22T08:48:59.530Z,13.00
2019-03-22T08:51:32.091Z,12.60
2019-03-22T08:54:03.201Z,12.80
2019-03-22T08:56:36.034Z,12.70
2019-03-22T08:59:07.742Z,13.00
2019-03-22T09:01:39.104Z,13.00
2019-03-22T09:04:10.579Z,12.60
2019-03-22T09:06:41.921Z,12.50
2019-03-22T09:09:13.216Z,12.60
2019-03-22T09:11:44.281Z,12.50
2019-03-22T09:14:15.521Z,12.30
2019-03-22T09:16:47.729Z,12.40
2019-03-22T09:19:24.856Z,12.60
2019-03-22T09:21:56.097Z,12.70
2019-03-22T09:24:38.513Z,12.70
2019-03-22T09:27:00.227Z,12.60
2019-03-22T09:29:31.558Z,12.60
2019-03-22T09:32:03.870Z,12.70
2019-03-22T09:34:35.243Z,13.10
2019-03-22T09:37:08.859Z,13.50
2019-03-22T09:39:39.448Z,13.30
2019-03-22T09:42:10.571Z,13.40
2019-03-22T09:44:44.124Z,13.60
2019-03-22T09:47:16.559Z,13.70
2019-03-22T09:49:47.835Z,13.50
2019-03-22T09:52:19.050Z,13.50
2019-03-22T09:54:51.397Z,13.60
2019-03-22T09:57:22.706Z,13.70
2019-03-22T09:59:53.936Z,13.60
2019-03-22T10:02:25.143Z,13.30
2019-03-22T10:04:56.403Z,13.10
2019-03-22T10:07:27.720Z,13.30
2019-03-22T10:09:59.215Z,13.60
2019-03-22T10:12:30.259Z,14.00
2019-03-22T10:15:01.518Z,14.00
2019-03-22T10:17:33.069Z,13.70
2019-03-22T10:20:04.763Z,13.40
2019-03-22T10:22:36.048Z,13.30
2019-03-22T10:25:07.391Z,13.40
2019-03-22T10:27:38.536Z,13.40
2019-03-22T10:30:10.129Z,13.70
2019-03-22T10:32:42.552Z,13.80
2019-03-22T10:35:25.327Z,13.80
2019-03-22T10:37:46.691Z,13.60
2019-03-22T10:40:18.205Z,13.30
2019-03-22T10:42:50.281Z,13.30
2019-03-22T10:45:21.407Z,13.40
2019-03-22T10:47:52.822Z,13.50
2019-03-22T10:50:24.190Z,14.00
2019-03-22T10:52:55.486Z,14.50
2019-03-22T10:55:30.262Z,14.60
2019-03-22T10:58:01.088Z,14.80
2019-03-22T11:00:33.533Z,14.80
2019-03-22T11:03:04.772Z,14.70
2019-03-22T11:05:36.065Z,14.60
2019-03-22T11:08:07.311Z,14.60
2019-03-22T11:10:38.393Z,14.50
2019-03-22T11:13:09.942Z,14.30
2019-03-22T11:15:48.531Z,14.20
2019-03-22T11:18:13.979Z,14.10
2019-03-22T11:20:45.820Z,14.00
2019-03-22T11:23:18.310Z,14.30
2019-03-22T11:25:49.491Z,14.40
2019-03-22T11:28:20.721Z,14.40
2019-03-22T11:30:51.871Z,14.20
2019-03-22T11:33:23.005Z,14.30
2019-03-22T11:35:54.148Z,14.30
2019-03-22T11:38:25.197Z,14.20
2019-03-22T11:40:56.613Z,14.00
2019-03-22T11:43:27.736Z,13.70
2019-03-22T11:45:58.855Z,13.70
2019-03-22T11:48:29.897Z,13.70
2019-03-22T11:51:01.036Z,13.60
2019-03-22T11:53:32.236Z,13.70
2019-03-22T11:56:05.286Z,14.10
2019-03-22T11:58:36.574Z,14.60
2019-03-22T12:01:07.871Z,14.70
2019-03-22T12:03:39.146Z,15.00
2019-03-22T12:06:10.353Z,15.30
2019-03-22T12:08:41.570Z,15.20
2019-03-22T12:11:13.036Z,14.80
2019-03-22T12:13:44.326Z,14.50
2019-03-22T12:16:15.389Z,14.20
2019-03-22T12:18:46.461Z,14.30
2019-03-22T12:21:17.720Z,14.50
2019-03-22T12:23:48.826Z,14.70
2019-03-22T12:26:20.095Z,15.00
2019-03-22T12:28:51.186Z,15.20
2019-03-22T12:31:22.476Z,15.10
2019-03-22T12:33:53.677Z,15.80
2019-03-22T12:36:24.807Z,16.40
2019-03-22T12:38:56.037Z,16.10
2019-03-22T12:41:27.180Z,15.80
2019-03-22T12:43:58.283Z,15.30
2019-03-22T12:46:29.774Z,14.80
2019-03-22T12:49:00.918Z,14.30
2019-03-22T12:51:32.153Z,14.00
2019-03-22T12:54:03.485Z,14.10
2019-03-22T12:56:34.547Z,14.20
2019-03-22T12:59:05.967Z,14.70
2019-03-22T13:01:37.234Z,15.80
2019-03-22T13:04:08.499Z,16.60
2019-03-22T13:06:39.654Z,17.00
2019-03-22T13:09:11.081Z,16.70
2019-03-22T13:11:42.423Z,16.10
2019-03-22T13:14:17.679Z,15.80
2019-03-22T13:16:48.971Z,15.80
2019-03-22T13:19:20.243Z,15.90
2019-03-22T13:21:51.632Z,15.70
2019-03-22T13:24:23.177Z,15.10
2019-03-22T13:26:54.686Z,14.90
2019-03-22T13:29:25.914Z,14.90
2019-03-22T13:31:56.891Z,15.30
2019-03-22T13:34:28.332Z,15.40
2019-03-22T13:37:00.404Z,15.00
2019-03-22T13:39:31.361Z,14.80
2019-03-22T13:42:02.666Z,14.70
2019-03-22T13:44:33.837Z,14.60
2019-03-22T13:47:05.184Z,14.50
2019-03-22T13:49:36.589Z,14.50
2019-03-22T13:52:07.787Z,14.40
2019-03-22T13:54:39.026Z,14.30
2019-03-22T13:57:10.339Z,14.50
2019-03-22T13:59:42.455Z,15.00
2019-03-22T14:02:13.593Z,15.30
2019-03-22T14:04:44.712Z,15.30
2019-03-22T14:07:16.040Z,14.50
2019-03-22T14:09:47.269Z,14.40
2019-03-22T14:12:18.400Z,14.10
2019-03-22T14:14:49.557Z,13.90
2019-03-22T14:17:20.836Z,13.90
2019-03-22T14:19:52.169Z,13.80
2019-03-22T14:22:23.324Z,13.90
2019-03-22T14:24:54.550Z,14.10
2019-03-22T14:27:25.626Z,14.30
2019-03-22T14:29:56.718Z,14.80
2019-03-22T14:32:27.750Z,15.00
2019-03-22T14:34:58.900Z,15.40
2019-03-22T14:37:30.019Z,15.80
2019-03-22T14:40:01.074Z,15.60
2019-03-22T14:42:32.271Z,15.60
2019-03-22T14:45:03.587Z,15.30
2019-03-22T14:47:34.857Z,15.30
2019-03-22T14:50:06.630Z,15.10
2019-03-22T14:52:37.917Z,14.90
2019-03-22T14:55:09.260Z,14.80
2019-03-22T14:57:49.104Z,14.70
2019-03-22T15:00:16.700Z,15.00
2019-03-22T15:02:47.887Z,15.10
2019-03-22T15:05:19.036Z,15.20
2019-03-22T15:07:50.546Z,15.10
2019-03-22T15:10:21.703Z,14.80
2019-03-22T15:12:56.173Z,14.60
2019-03-22T15:15:46.372Z,14.40
2019-03-22T15:18:40.421Z,14.10
2019-03-22T15:21:30.779Z,13.80
2019-03-22T15:24:20.937Z,13.70
2019-03-22T15:27:11.165Z,13.70
2019-03-22T15:29:54.772Z,13.70
2019-03-22T15:32:45.083Z,13.60
2019-03-22T15:35:28.203Z,13.70
2019-03-22T15:38:18.578Z,13.80
2019-03-22T15:40:49.936Z,14.00
2019-03-22T15:43:21.266Z,14.20
2019-03-22T15:45:52.615Z,14.60
2019-03-22T15:48:23.917Z,15.10
2019-03-22T15:50:55.196Z,15.70
2019-03-22T15:53:29.378Z,15.90
2019-03-22T15:56:32.947Z,16.20
2019-03-22T15:59:04.278Z,16.50
2019-03-22T16:01:36.921Z,16.60
2019-03-22T16:04:09.303Z,16.20
2019-03-22T16:06:40.679Z,15.60
2019-03-22T16:09:12.206Z,15.10
2019-03-22T16:11:52.685Z,14.50
2019-03-22T16:14:23.965Z,13.90
2019-03-22T16:16:55.198Z,13.30
2019-03-22T16:19:26.479Z,12.80
2019-03-22T16:22:05.075Z,12.40
2019-03-22T16:24:42.917Z,12.10
2019-03-22T16:27:24.762Z,11.80
2019-03-22T16:29:56.117Z,11.50
2019-03-22T16:32:40.218Z,11.30
2019-03-22T16:35:12.037Z,11.10
2019-03-22T16:37:55.381Z,11.00
2019-03-22T16:40:45.094Z,10.80
2019-03-22T16:43:49.037Z,10.70
2019-03-22T16:46:52.349Z,10.40
2019-03-22T16:49:33.886Z,10.30
2019-03-22T16:52:05.386Z,10.10
2019-03-22T16:54:37.037Z,9.90
2019-03-22T16:57:19.039Z,9.60
2019-03-22T17:00:05.742Z,9.40
2019-03-22T17:02:41.075Z,9.30
2019-03-22T17:05:15.391Z,9.20
2019-03-22T17:07:46.650Z,9.20
2019-03-22T17:10:18.086Z,9.10
2019-03-22T17:12:54.947Z,9.10
2019-03-22T17:15:26.548Z,9.00
2019-03-22T17:18:05.251Z,8.90
2019-03-22T17:20:37.119Z,8.70
2019-03-22T17:23:17.547Z,8.60
2019-03-22T17:26:00.168Z,8.50
2019-03-22T17:28:31.749Z,8.30
2019-03-22T17:31:08.772Z,8.10
2019-03-22T17:33:40.061Z,8.10
2019-03-22T17:47:08.429Z,8.10
2019-03-22T17:51:38.540Z,7.70
2019-03-22T17:54:09.940Z,7.40
2019-03-22T17:56:41.188Z,7.10
2019-03-22T17:59:12.418Z,6.80
2019-03-22T18:16:25.429Z,6.60
2019-03-22T18:18:56.751Z,6.20
2019-03-22T18:21:28.262Z,6.10
2019-03-22T18:23:59.561Z,5.90
2019-03-22T18:26:30.596Z,5.70
2019-03-22T18:29:02.949Z,5.50
2019-03-22T18:31:34.276Z,5.30
2019-03-22T18:34:05.691Z,5.30
2019-03-22T18:36:37.228Z,5.20
2019-03-22T18:39:09.805Z,5.20
2019-03-22T18:41:41.146Z,5.10
2019-03-22T18:44:13.161Z,4.90
2019-03-22T18:46:44.533Z,4.70
2019-03-22T18:49:15.796Z,4.60
2019-03-22T18:51:47.158Z,4.60
2019-03-22T18:54:18.508Z,4.70
2019-03-22T18:56:49.625Z,4.80
2019-03-22T18:59:20.994Z,4.80
2019-03-22T19:01:52.340Z,4.70
2019-03-22T19:04:23.698Z,4.50
2019-03-22T19:06:54.769Z,4.50
2019-03-22T19:09:26.078Z,4.30
2019-03-22T19:11:57.707Z,4.20
2019-03-22T19:14:29.033Z,4.10
2019-03-22T19:17:01.207Z,4.00
2019-03-22T19:19:33.431Z,4.10
2019-03-22T19:22:06.558Z,4.30
2019-03-22T19:24:40.789Z,4.20
2019-03-22T19:27:12.487Z,4.10
2019-03-22T19:29:44.217Z,4.00
2019-03-22T19:32:15.897Z,4.00
2019-03-22T19:34:54.319Z,3.90
2019-03-22T19:37:23.408Z,3.90
2019-03-22T19:39:55.826Z,3.90
2019-03-22T19:42:27.714Z,3.90
2019-03-22T19:45:01.074Z,3.90
2019-03-22T19:47:32.987Z,3.80
2019-03-22T19:50:06.595Z,3.70
2019-03-22T19:52:42.896Z,3.70
2019-03-22T19:55:15.246Z,3.80
2019-03-22T19:57:49.546Z,3.90
2019-03-22T20:00:24.798Z,4.10
2019-03-22T20:03:00.791Z,4.40
2019-03-22T20:05:33.916Z,4.60
2019-03-22T20:08:06.102Z,4.70
2019-03-22T20:10:57.837Z,4.80
2019-03-22T20:13:31.843Z,4.80
2019-03-22T20:16:05.870Z,4.90
2019-03-22T20:18:49.738Z,4.80
2019-03-22T20:21:23.576Z,4.80
2019-03-22T20:23:56.912Z,4.80
2019-03-22T20:26:29.016Z,4.90
2019-03-22T20:29:00.859Z,4.90
2019-03-22T20:31:33.017Z,5.20
2019-03-22T20:34:04.387Z,5.30
2019-03-22T20:36:36.102Z,5.10
2019-03-22T20:39:08.940Z,5.10
2019-03-22T20:41:42.895Z,5.10
2019-03-22T20:44:14.451Z,5.00
2019-03-22T20:46:45.647Z,4.90
2019-03-22T20:49:17.029Z,4.80
2019-03-22T20:51:48.855Z,4.70
2019-03-22T20:54:20.239Z,4.60
2019-03-22T20:56:51.634Z,4.60
2019-03-22T20:59:22.655Z,4.50
2019-03-22T21:01:54.028Z,4.40
2019-03-22T21:04:25.177Z,4.40
2019-03-22T21:06:56.459Z,4.50
2019-03-22T21:09:27.698Z,4.40
2019-03-22T21:11:59.047Z,4.30
2019-03-22T21:14:30.876Z,4.30
2019-03-22T21:17:03.199Z,4.20
2019-03-22T21:19:37.927Z,4.10
2019-03-22T21:22:08.859Z,4.00
2019-03-22T21:24:40.741Z,3.80
2019-03-22T21:27:15.938Z,3.50
2019-03-22T21:29:46.526Z,3.40
2019-03-22T21:32:17.771Z,3.20
2019-03-22T21:34:48.978Z,3.20
2019-03-22T21:37:20.137Z,3.20
2019-03-22T21:39:51.167Z,3.20
2019-03-22T21:42:22.461Z,3.20
2019-03-22T21:44:53.568Z,3.10
2019-03-22T21:47:24.760Z,3.00
2019-03-22T21:49:55.954Z,2.90
2019-03-22T21:52:26.949Z,2.80
2019-03-22T21:54:58.036Z,2.60
2019-03-22T21:57:28.987Z,2.50
2019-03-22T22:00:00.349Z,2.40
2019-03-22T22:02:31.457Z,2.40
2019-03-22T22:05:02.763Z,2.40
2019-03-22T22:07:33.996Z,2.30
2019-03-22T22:10:05.606Z,2.10
2019-03-22T22:12:36.782Z,2.00
2019-03-22T22:15:10.769Z,1.80
2019-03-22T22:17:42.412Z,1.60
2019-03-22T22:20:14.055Z,1.40
2019-03-22T22:22:45.319Z,1.40
2019-03-22T22:25:16.196Z,1.30
2019-03-22T22:27:50.260Z,1.20
2019-03-22T22:30:21.249Z,1.20
2019-03-22T22:32:52.559Z,1.10
2019-03-22T22:35:23.511Z,0.90
2019-03-22T22:37:54.617Z,0.80
2019-03-22T22:40:26.848Z,0.70
2019-03-22T22:42:57.843Z,0.60
2019-03-22T22:45:28.888Z,0.50
2019-03-22T22:48:00.022Z,0.40
2019-03-22T22:50:31.011Z,0.40
2019-03-22T22:53:02.054Z,0.40
2019-03-22T22:55:33.042Z,0.30
2019-03-22T22:58:04.086Z,0.30
2019-03-22T23:00:35.207Z,0.30
2019-03-22T23:03:06.387Z,0.20
2019-03-22T23:05:39.658Z,0.10
2019-03-22T23:08:10.696Z,0.00
2019-03-22T23:10:41.739Z,0.00
2019-03-22T23:13:12.786Z,-0.10
2019-03-22T23:15:43.881Z,-0.20
2019-03-22T23:18:14.878Z,-0.10
2019-03-22T23:20:45.969Z,-0.10
2019-03-22T23:23:17.004Z,-0.10
2019-03-22T23:25:49.146Z,-0.20
2019-03-22T23:28:20.195Z,-0.20
2019-03-22T23:30:51.519Z,-0.30
2019-03-22T23:33:23.578Z,-0.30
2019-03-22T23:35:54.549Z,-0.30
2019-03-22T23:38:25.620Z,-0.30
2019-03-22T23:40:56.695Z,-0.30
2019-03-22T23:43:27.847Z,-0.40
2019-03-22T23:45:59.032Z,-0.50
2019-03-22T23:48:30.138Z,-0.50
2019-03-22T23:51:01.322Z,-0.60
2019-03-22T23:53:32.415Z,-0.60
2019-03-22T23:56:03.574Z,-0.60
2019-03-22T23:58:34.517Z,-0.60
